Decoded Metar for KHUA (REDSTONE in AL, USA) (IATA:HUA) | Meteo·Mobile Aviation Weather
aviador You're here:

KHUA Decoded Metar

REDSTONE in AL, USA
Report Time2018-12-13 03:58:00
UTC Time2018-12-13 05:00:37
Flight Rules vfr VFR
Wind200° at 05 kt
W.Decomp.*RWY 17: 4.1 kt HW 2.8 kt RCW
W.Rank200° ranks 2
Current wind is below 200° avg. (6.4)
Visibility9999 m
Phenomena:N/A
Clouds:Overcast 060 Hf
Expected CloudBase > 2,000 ft AGL from Temp-Dew spread
Ceiling6,000 ft
Temp06°C (ISA -8)
Dew Point01°C (71% RH)
AAT2.4°C
QNH1020 hPa
Density Alt-377 ft
Elevation686 ft
Report Wrong Elevation
Raw Report
KHUA 130358Z AUTO 20005KT 10SM OVC060 06/01 A3013 RMK AO2 SLP207
T00600005=

Extra information for KHUA:More info

Metar Taf Metar & Taf Last 4 Metars F.Rules Stats Wind Profile Meteogram Temp Stats Airport Information Weather charts Add Link Nearby VenuesMetar ALERT Operation Metar Decoded Social comments

AIRNAV info for KHUA